Time;durP1;ratioP1;P1;durP2;ratioP2;P2;SDS_P1;SDS_P2;PMS_P1;PMS_P2;Temp;Humidity;BMP_temperature;BMP_pressure;BME280_temperature;BME280_humidity;BME280_pressure;Samples;Min_cycle;Max_cycle;Signal;HPM_P1;HPM_P2
2022/11/29 00:00:58;;;;;;;9.00;5.53;;;3.90;99.90;;;;;;4998730;28;20038;-73
2022/11/29 00:03:24;;;;;;;9.57;4.60;;;3.90;99.90;;;;;;4996052;28;20056;-73
2022/11/29 00:05:50;;;;;;;10.13;5.30;;;3.90;99.90;;;;;;4998349;28;20034;-73
2022/11/29 00:08:17;;;;;;;8.35;5.20;;;3.80;99.90;;;;;;4998047;28;20041;-73
2022/11/29 00:10:43;;;;;;;7.88;4.85;;;3.90;99.90;;;;;;5004717;28;20034;-73
2022/11/29 00:13:08;;;;;;;7.57;4.80;;;3.90;99.90;;;;;;4993486;28;20041;-73
2022/11/29 00:15:36;;;;;;;13.30;5.28;;;3.80;99.90;;;;;;4990760;28;20080;-73
2022/11/29 00:18:02;;;;;;;9.60;5.32;;;3.70;99.90;;;;;;4993156;28;20062;-73
2022/11/29 00:20:27;;;;;;;10.95;5.68;;;3.70;99.90;;;;;;4994622;28;20033;-73
2022/11/29 00:22:53;;;;;;;8.88;5.38;;;3.60;99.90;;;;;;4997982;28;20428;-73
2022/11/29 00:25:19;;;;;;;11.65;6.63;;;3.60;99.90;;;;;;5009375;28;20033;-73
2022/11/29 00:27:45;;;;;;;7.90;4.82;;;3.50;99.90;;;;;;5007015;28;20033;-73
2022/11/29 00:30:11;;;;;;;10.52;5.53;;;3.60;99.90;;;;;;5004953;28;20034;-73
2022/11/29 00:32:37;;;;;;;8.20;4.95;;;3.60;99.90;;;;;;5008067;28;20042;-73
2022/11/29 00:35:03;;;;;;;9.85;5.22;;;3.60;99.90;;;;;;4996217;28;20030;-72
2022/11/29 00:37:28;;;;;;;10.05;5.35;;;3.60;99.90;;;;;;4998286;28;20038;-72
2022/11/29 00:39:54;;;;;;;9.50;5.40;;;3.60;99.90;;;;;;4999282;28;20034;-73
2022/11/29 00:42:20;;;;;;;9.25;5.65;;;3.50;99.90;;;;;;4999173;28;20508;-73
2022/11/29 00:44:45;;;;;;;13.02;5.65;;;3.50;99.90;;;;;;4996139;28;20038;-73
2022/11/29 00:47:11;;;;;;;11.15;5.57;;;3.60;99.90;;;;;;5004128;28;20033;-73
2022/11/29 00:49:37;;;;;;;9.13;4.93;;;3.70;99.90;;;;;;5002957;28;20473;-73
2022/11/29 00:52:03;;;;;;;9.88;5.05;;;3.80;99.90;;;;;;5010312;28;20039;-73
2022/11/29 00:54:28;;;;;;;12.05;6.03;;;3.80;99.90;;;;;;4999836;28;20030;-73
2022/11/29 00:56:54;;;;;;;10.20;5.13;;;3.80;99.90;;;;;;5008290;28;20026;-73
2022/11/29 00:59:20;;;;;;;9.90;4.95;;;3.80;99.90;;;;;;5006513;28;20026;-73
2022/11/29 01:01:45;;;;;;;10.45;5.70;;;3.90;99.90;;;;;;5000177;28;20041;-73
2022/11/29 01:04:11;;;;;;;10.05;6.18;;;3.90;99.90;;;;;;5001548;28;20034;-73
2022/11/29 01:06:37;;;;;;;7.65;4.75;;;3.90;99.90;;;;;;5006854;28;20443;-73
2022/11/29 01:09:03;;;;;;;10.75;6.07;;;3.90;99.90;;;;;;5004292;28;20038;-73
2022/11/29 01:11:29;;;;;;;11.10;5.82;;;3.70;99.90;;;;;;5010716;28;20077;-73
2022/11/29 01:13:58;;;;;;;10.43;6.20;;;3.80;99.90;;;;;;4999505;28;20061;-73
2022/11/29 01:16:25;;;;;;;7.75;5.10;;;3.70;99.90;;;;;;5000490;28;20038;-73
2022/11/29 01:18:51;;;;;;;9.45;5.07;;;3.80;99.90;;;;;;4996812;28;20045;-73
2022/11/29 01:21:20;;;;;;;15.23;6.57;;;3.80;99.90;;;;;;5009394;28;21581;-73
2022/11/29 01:23:47;;;;;;;9.45;5.72;;;3.80;99.90;;;;;;5001696;28;20038;-73
2022/11/29 01:26:15;;;;;;;11.00;5.85;;;3.90;99.90;;;;;;5015362;28;20031;-73
2022/11/29 01:28:41;;;;;;;12.02;6.25;;;3.90;99.90;;;;;;5002267;28;20496;-73
2022/11/29 01:31:13;;;;;;;9.18;5.80;;;3.90;99.90;;;;;;5006826;28;20033;-73
2022/11/29 01:33:39;;;;;;;9.40;5.72;;;3.90;99.90;;;;;;4999300;28;20050;-73
2022/11/29 01:36:07;;;;;;;13.60;6.13;;;3.90;99.90;;;;;;5005154;28;20163;-73
2022/11/29 01:38:33;;;;;;;12.48;5.22;;;4.00;99.90;;;;;;5001949;28;20040;-73
2022/11/29 01:40:59;;;;;;;10.48;5.60;;;4.00;99.90;;;;;;5002932;28;20030;-73
2022/11/29 01:43:26;;;;;;;9.57;5.47;;;4.00;99.90;;;;;;5000634;28;20049;-73
2022/11/29 01:45:51;;;;;;;11.18;5.13;;;3.90;99.90;;;;;;5008316;28;20036;-73
2022/11/29 01:48:21;;;;;;;7.65;5.13;;;3.90;99.90;;;;;;5012296;28;20456;-73
2022/11/29 01:50:46;;;;;;;11.43;6.35;;;3.90;99.90;;;;;;5006450;28;20053;-73
2022/11/29 01:53:13;;;;;;;9.75;5.45;;;4.00;99.90;;;;;;4991859;28;20385;-73
2022/11/29 01:55:44;;;;;;;9.50;6.07;;;3.80;99.90;;;;;;5000476;28;20026;-73
2022/11/29 01:58:10;;;;;;;11.05;6.32;;;3.80;99.90;;;;;;5001242;28;20035;-73
2022/11/29 02:09:57;;;;;;;8.80;5.72;;;3.70;99.90;;;;;;4999852;28;20101;-73
2022/11/29 02:12:40;;;;;;;10.85;6.40;;;3.80;99.90;;;;;;4998448;28;20037;-73
2022/11/29 02:15:06;;;;;;;10.45;6.13;;;3.90;99.90;;;;;;5005772;28;20034;-73
2022/11/29 02:17:50;;;;;;;9.75;6.18;;;3.80;99.90;;;;;;5001392;28;20492;-73
2022/11/29 02:20:34;;;;;;;11.63;6.43;;;3.90;99.90;;;;;;4995557;28;20465;-73
2022/11/29 02:23:20;;;;;;;10.30;5.68;;;4.00;99.90;;;;;;4991631;28;20101;-73
2022/11/29 02:25:52;;;;;;;9.25;5.18;;;4.10;99.90;;;;;;5003769;28;20753;-73
2022/11/29 02:28:29;;;;;;;13.07;6.75;;;4.10;99.90;;;;;;5001158;28;20105;-73
2022/11/29 02:31:07;;;;;;;10.30;5.78;;;3.90;99.90;;;;;;4996524;28;20026;-73
2022/11/29 02:33:48;;;;;;;11.02;6.20;;;3.90;99.90;;;;;;4992830;28;20030;-73
2022/11/29 02:36:44;;;;;;;9.65;5.55;;;3.70;99.90;;;;;;4998517;28;20034;-73
2022/11/29 02:39:17;;;;;;;10.35;6.15;;;3.70;99.90;;;;;;4993777;28;20082;-73
2022/11/29 02:41:49;;;;;;;9.93;6.03;;;3.80;99.90;;;;;;4995151;28;20041;-73
2022/11/29 02:44:42;;;;;;;11.20;5.93;;;3.80;99.90;;;;;;4994791;28;20038;-73
2022/11/29 02:47:10;;;;;;;10.57;5.72;;;3.80;99.90;;;;;;4998987;28;20033;-73
2022/11/29 02:49:42;;;;;;;10.32;5.90;;;3.90;99.90;;;;;;4998966;28;20504;-73
2022/11/29 02:52:17;;;;;;;10.93;7.07;;;3.90;99.90;;;;;;4999028;28;20041;-73
2022/11/29 02:54:51;;;;;;;10.75;6.22;;;3.90;99.90;;;;;;5006245;28;20104;-73
2022/11/29 02:57:40;;;;;;;10.20;5.43;;;3.90;99.90;;;;;;4992968;28;20035;-73
2022/11/29 03:00:14;;;;;;;10.93;5.85;;;3.80;99.90;;;;;;4996949;28;20034;-73
2022/11/29 03:02:56;;;;;;;11.10;6.43;;;3.80;99.90;;;;;;4996209;28;20038;-73
2022/11/29 03:05:51;;;;;;;10.40;7.22;;;3.80;99.90;;;;;;5000354;28;20554;-73
2022/11/29 03:08:25;;;;;;;13.63;6.40;;;3.80;99.90;;;;;;4995563;28;20066;-73
2022/11/29 03:11:24;;;;;;;12.27;6.90;;;3.90;99.90;;;;;;5000663;28;20359;-73
2022/11/29 03:14:14;;;;;;;9.95;6.22;;;3.90;99.90;;;;;;5004049;28;20026;-73
2022/11/29 03:16:46;;;;;;;13.43;7.35;;;3.90;99.90;;;;;;5002300;28;20049;-73
2022/11/29 03:19:33;;;;;;;10.05;6.88;;;3.90;99.90;;;;;;4998378;28;20117;-73
2022/11/29 03:22:08;;;;;;;11.32;6.57;;;3.90;99.90;;;;;;4997862;28;20045;-73
2022/11/29 03:24:36;;;;;;;;;;;3.90;99.90;;;;;;4997459;28;20041;-73
2022/11/29 03:27:08;;;;;;;12.68;6.45;;;4.00;99.90;;;;;;4998723;28;19909;-73
2022/11/29 03:29:56;;;;;;;12.77;6.35;;;3.90;99.90;;;;;;5002931;28;20117;-73
2022/11/29 03:32:27;;;;;;;11.90;6.32;;;3.80;99.90;;;;;;5006801;28;20750;-73
2022/11/29 03:35:10;;;;;;;12.15;6.72;;;3.70;99.90;;;;;;5003777;28;20065;-73
2022/11/29 03:37:58;;;;;;;11.85;5.47;;;3.80;99.90;;;;;;4995812;28;20034;-72
2022/11/29 03:40:40;;;;;;;9.52;6.57;;;3.80;99.90;;;;;;4992889;28;20101;-73
2022/11/29 03:43:14;;;;;;;9.38;6.18;;;3.90;99.90;;;;;;4990029;28;20046;-73
2022/11/29 03:46:06;;;;;;;11.13;5.75;;;3.80;99.90;;;;;;5005508;28;20440;-72
2022/11/29 03:48:46;;;;;;;10.55;6.25;;;3.90;99.90;;;;;;4999145;28;25134;-72
2022/11/29 03:51:40;;;;;;;10.10;6.03;;;3.80;99.90;;;;;;4991055;28;20030;-73
2022/11/29 03:54:13;;;;;;;10.27;6.70;;;3.80;99.90;;;;;;4997274;28;20468;-73
2022/11/29 03:56:39;;;;;;;13.70;6.80;;;3.90;99.90;;;;;;4992474;28;20034;-73
2022/11/29 03:59:44;;;;;;;12.23;6.57;;;3.90;99.90;;;;;;5008807;28;20156;-73
2022/11/29 04:02:37;;;;;;;10.80;6.53;;;3.90;99.90;;;;;;4995936;28;20084;-72
2022/11/29 04:05:21;;;;;;;13.80;7.07;;;4.00;99.90;;;;;;4991784;28;20030;-72
2022/11/29 04:08:24;;;;;;;12.07;6.50;;;4.00;99.90;;;;;;4991686;28;20030;-71
2022/11/29 04:11:36;;;;;;;10.57;6.68;;;3.90;99.90;;;;;;4987900;28;20035;-71
2022/11/29 04:14:46;;;;;;;11.27;6.32;;;4.00;99.90;;;;;;4989636;28;20034;-71
2022/11/29 04:17:36;;;;;;;11.80;6.32;;;4.10;99.90;;;;;;4990589;28;20478;-71
2022/11/29 04:20:27;;;;;;;13.95;6.43;;;4.10;99.90;;;;;;4993970;28;20501;-71
2022/11/29 04:23:30;;;;;;;12.93;6.82;;;4.00;99.90;;;;;;4991621;28;20091;-72
2022/11/29 04:26:08;;;;;;;12.48;6.82;;;4.10;99.90;;;;;;4986718;28;20220;-71
2022/11/29 04:28:58;;;;;;;12.30;7.47;;;4.10;99.90;;;;;;4989440;28;20037;-71
2022/11/29 04:31:23;;;;;;;13.32;7.55;;;4.20;99.90;;;;;;4994207;28;20042;-71
2022/11/29 04:34:02;;;;;;;12.18;7.78;;;4.00;99.90;;;;;;4986339;28;20031;-72
2022/11/29 04:36:46;;;;;;;9.25;5.97;;;4.00;99.90;;;;;;4997894;28;20030;-72
2022/11/29 04:39:40;;;;;;;12.50;7.35;;;4.10;99.90;;;;;;4989371;28;20030;-72
2022/11/29 04:42:33;;;;;;;14.43;6.68;;;4.10;99.90;;;;;;4993685;28;20580;-71
2022/11/29 04:45:20;;;;;;;13.57;7.63;;;4.10;99.90;;;;;;4991097;28;20069;-71
2022/11/29 04:48:08;;;;;;;12.73;7.95;;;4.10;99.90;;;;;;4996060;28;20026;-71
2022/11/29 04:50:43;;;;;;;14.55;7.45;;;4.00;99.90;;;;;;4996164;28;20396;-71
2022/11/29 04:53:37;;;;;;;11.82;8.02;;;4.00;99.90;;;;;;4994046;28;20089;-72
2022/11/29 04:56:27;;;;;;;13.35;7.82;;;4.00;99.90;;;;;;4990562;28;20670;-71
2022/11/29 04:59:12;;;;;;;12.48;8.13;;;4.00;99.90;;;;;;4996731;28;20034;-71
2022/11/29 05:02:12;;;;;;;13.52;7.57;;;4.10;99.90;;;;;;4989459;28;20042;-72
2022/11/29 05:04:52;;;;;;;12.00;7.38;;;4.10;99.90;;;;;;4998129;28;20018;-71
2022/11/29 05:07:59;;;;;;;14.05;8.23;;;4.10;99.90;;;;;;4994099;28;20086;-71
2022/11/29 05:10:37;;;;;;;14.43;9.15;;;4.20;99.90;;;;;;4988700;28;20396;-72
2022/11/29 05:13:17;;;;;;;13.60;8.20;;;4.10;99.90;;;;;;4993418;28;20075;-71
2022/11/29 05:16:11;;;;;;;17.50;8.77;;;4.10;99.90;;;;;;4994018;28;20062;-72
2022/11/29 05:18:48;;;;;;;16.60;8.35;;;4.00;99.90;;;;;;4995414;28;20037;-72
2022/11/29 05:21:23;;;;;;;14.98;8.60;;;4.00;99.90;;;;;;4996316;28;20030;-72
2022/11/29 05:24:07;;;;;;;14.18;9.43;;;3.90;99.90;;;;;;4998604;28;20424;-72
2022/11/29 05:27:01;;;;;;;16.85;8.88;;;3.80;99.90;;;;;;4991194;28;20120;-71
2022/11/29 05:29:41;;;;;;;13.25;8.38;;;3.80;99.90;;;;;;4996144;28;20037;-71
2022/11/29 05:32:16;;;;;;;15.98;8.65;;;3.70;99.90;;;;;;4994162;28;20029;-71
2022/11/29 05:35:17;;;;;;;16.67;8.57;;;3.70;99.90;;;;;;4989749;28;20022;-71
2022/11/29 05:37:53;;;;;;;13.95;8.55;;;3.80;99.90;;;;;;4992349;28;20129;-72
2022/11/29 05:40:19;;;;;;;13.93;9.57;;;3.90;99.90;;;;;;4998250;28;20026;-72
2022/11/29 05:42:54;;;;;;;14.60;8.48;;;3.90;99.90;;;;;;4996656;28;20042;-71
2022/11/29 05:45:41;;;;;;;15.95;9.35;;;3.90;99.90;;;;;;4988092;28;20169;-71
2022/11/29 05:48:25;;;;;;;14.73;9.18;;;4.00;99.90;;;;;;4986134;28;20071;-71
2022/11/29 05:51:15;;;;;;;14.05;8.13;;;3.90;99.90;;;;;;4988806;28;20140;-71
2022/11/29 05:53:59;;;;;;;13.77;7.80;;;3.90;99.90;;;;;;4987184;28;20026;-72
2022/11/29 05:57:02;;;;;;;12.95;8.13;;;3.90;99.90;;;;;;4992084;28;20064;-72
2022/11/29 05:59:29;;;;;;;11.25;7.47;;;4.00;99.90;;;;;;4989434;28;20053;-71
2022/11/29 06:02:27;;;;;;;12.50;8.45;;;4.10;99.90;;;;;;4997761;28;20134;-71
2022/11/29 06:05:12;;;;;;;15.07;9.98;;;4.00;99.90;;;;;;4995155;28;20033;-70
2022/11/29 06:07:57;;;;;;;16.25;8.98;;;4.00;99.90;;;;;;4987542;28;20030;-71
2022/11/29 06:10:36;;;;;;;14.05;8.40;;;4.00;99.90;;;;;;4987215;28;20587;-70
2022/11/29 06:13:14;;;;;;;15.40;9.10;;;4.00;99.90;;;;;;4987939;28;20026;-71
2022/11/29 06:15:57;;;;;;;12.80;8.25;;;3.90;99.90;;;;;;4989510;28;20027;-70
2022/11/29 06:18:41;;;;;;;15.20;9.50;;;3.90;99.90;;;;;;4988989;28;20132;-71
2022/11/29 06:21:19;;;;;;;14.57;9.02;;;3.90;99.90;;;;;;4987987;28;20480;-71
2022/11/29 06:23:56;;;;;;;13.10;9.18;;;4.00;99.90;;;;;;4995202;28;20045;-70
2022/11/29 06:26:43;;;;;;;17.38;8.68;;;3.90;99.90;;;;;;4984983;28;20050;-70
2022/11/29 06:29:16;;;;;;;15.23;9.70;;;3.90;99.90;;;;;;4993917;28;20034;-71
2022/11/29 06:31:51;;;;;;;16.02;9.60;;;4.00;99.90;;;;;;4991856;28;20038;-70
2022/11/29 06:34:21;;;;;;;;;;;3.90;99.90;;;;;;4985605;28;20042;-70
2022/11/29 06:37:02;;;;;;;16.23;8.85;;;4.00;99.90;;;;;;4987164;28;19945;-70
2022/11/29 06:39:27;;;;;;;21.77;9.43;;;3.90;99.90;;;;;;4994800;28;20037;-71
2022/11/29 06:41:53;;;;;;;16.50;9.50;;;4.00;99.90;;;;;;4991101;28;20030;-71
2022/11/29 06:44:20;;;;;;;15.70;9.18;;;3.90;99.90;;;;;;4994600;28;20053;-70
2022/11/29 06:47:05;;;;;;;13.20;9.48;;;3.90;99.90;;;;;;5002105;28;20025;-70
2022/11/29 06:50:01;;;;;;;15.95;10.02;;;3.80;99.90;;;;;;5001424;28;20026;-71
2022/11/29 06:52:48;;;;;;;17.35;10.40;;;3.80;99.90;;;;;;4995939;28;20052;-71
2022/11/29 06:55:14;;;;;;;15.70;10.23;;;3.80;99.90;;;;;;4994703;28;20029;-70
2022/11/29 06:58:13;;;;;;;15.57;10.25;;;3.90;99.90;;;;;;4992093;28;20042;-71
2022/11/29 07:00:52;;;;;;;16.13;10.27;;;3.90;99.90;;;;;;4989496;28;20026;-71
2022/11/29 07:03:37;;;;;;;15.85;9.73;;;3.90;99.90;;;;;;5017123;28;20081;-70
2022/11/29 07:06:14;;;;;;;16.73;9.77;;;3.90;99.90;;;;;;4989755;28;20065;-70
2022/11/29 07:08:41;;;;;;;15.05;9.90;;;3.90;99.90;;;;;;4991043;28;20060;-71
2022/11/29 07:11:10;;;;;;;14.85;9.15;;;3.90;99.90;;;;;;4987912;28;20041;-71
2022/11/29 07:13:36;;;;;;;17.92;10.02;;;3.90;99.90;;;;;;4989493;28;20038;-71
2022/11/29 07:16:23;;;;;;;15.82;10.10;;;3.90;99.90;;;;;;4989329;28;20041;-70
2022/11/29 07:19:19;;;;;;;17.08;10.55;;;3.90;99.90;;;;;;4987259;28;20034;-71
2022/11/29 07:21:50;;;;;;;;;;;3.90;99.90;;;;;;4992265;28;20030;-70
2022/11/29 07:24:22;;;;;;;13.02;8.20;;;3.90;99.90;;;;;;4997001;28;19953;-71
2022/11/29 07:26:59;;;;;;;16.83;9.95;;;3.90;99.90;;;;;;4987884;28;20026;-71
2022/11/29 07:29:46;;;;;;;16.73;10.38;;;4.00;99.90;;;;;;4989118;28;20030;-71
2022/11/29 07:32:37;;;;;;;15.23;9.40;;;4.10;99.90;;;;;;4983624;28;20716;-70
2022/11/29 07:35:03;;;;;;;14.80;9.05;;;4.10;99.90;;;;;;4983550;28;20609;-71
2022/11/29 07:37:37;;;;;;;14.98;9.93;;;4.10;99.90;;;;;;4991759;28;20030;-71
2022/11/29 07:40:11;;;;;;;15.32;10.50;;;4.10;99.90;;;;;;4996318;28;20030;-71
2022/11/29 07:42:43;;;;;;;16.75;11.10;;;4.10;99.90;;;;;;4983925;28;21070;-71
2022/11/29 07:45:08;;;;;;;14.52;10.30;;;4.10;99.90;;;;;;4989655;28;20638;-70
2022/11/29 07:47:34;;;;;;;14.38;10.10;;;4.20;99.90;;;;;;4985047;28;20030;-70
2022/11/29 07:50:00;;;;;;;16.48;10.50;;;4.20;99.90;;;;;;4992855;28;20026;-71
2022/11/29 07:52:25;;;;;;;18.65;10.52;;;4.20;99.90;;;;;;4990781;28;20034;-70
2022/11/29 07:54:51;;;;;;;19.48;10.60;;;4.30;99.90;;;;;;4988298;28;20625;-71
2022/11/29 07:57:16;;;;;;;21.92;12.80;;;4.20;99.90;;;;;;4990560;28;20038;-71
2022/11/29 07:59:42;;;;;;;17.77;10.25;;;4.20;99.90;;;;;;4990636;28;20033;-71
2022/11/29 08:02:10;;;;;;;23.63;15.77;;;4.30;99.90;;;;;;4991694;28;20050;-70
2022/11/29 08:04:41;;;;;;;22.60;12.40;;;4.30;99.90;;;;;;4994496;28;20034;-70
2022/11/29 08:07:07;;;;;;;19.67;13.18;;;4.30;99.90;;;;;;4995606;28;20655;-70
2022/11/29 08:09:33;;;;;;;22.70;13.20;;;4.20;99.90;;;;;;4988220;28;20028;-71
2022/11/29 08:11:59;;;;;;;21.15;13.40;;;4.10;99.90;;;;;;4988120;28;20041;-71
2022/11/29 08:14:24;;;;;;;23.65;16.42;;;4.30;99.90;;;;;;4992197;28;20030;-70
2022/11/29 08:16:50;;;;;;;21.17;14.55;;;4.30;99.90;;;;;;4999433;28;20076;-70
2022/11/29 08:19:16;;;;;;;23.75;14.35;;;4.30;99.90;;;;;;5001013;28;20080;-70
2022/11/29 08:21:46;;;;;;;25.95;15.35;;;4.40;99.90;;;;;;4988880;28;20041;-72
2022/11/29 08:24:12;;;;;;;25.20;16.33;;;4.40;99.90;;;;;;4984822;28;20084;-72
2022/11/29 08:26:37;;;;;;;23.20;13.82;;;4.40;99.90;;;;;;4988683;28;20092;-71
2022/11/29 08:29:03;;;;;;;23.80;15.23;;;4.40;99.90;;;;;;4994837;28;20064;-71
2022/11/29 08:31:29;;;;;;;23.17;15.73;;;4.40;99.90;;;;;;4990338;28;20552;-71
2022/11/29 08:33:54;;;;;;;22.98;14.10;;;4.40;99.90;;;;;;4994859;28;20021;-71
2022/11/29 08:36:20;;;;;;;22.52;14.90;;;4.40;99.90;;;;;;4994084;28;20026;-71
2022/11/29 08:38:46;;;;;;;23.25;15.38;;;4.50;99.90;;;;;;4996159;28;20057;-71
2022/11/29 08:41:14;;;;;;;19.92;14.00;;;4.50;99.90;;;;;;4988388;28;20065;-71
2022/11/29 08:43:40;;;;;;;20.73;13.30;;;4.60;99.90;;;;;;4998450;28;20033;-70
2022/11/29 08:46:06;;;;;;;18.70;11.63;;;4.60;99.90;;;;;;4996351;28;20034;-72
2022/11/29 08:48:32;;;;;;;20.30;12.57;;;4.50;99.90;;;;;;4994670;28;20563;-72
2022/11/29 08:50:58;;;;;;;20.48;11.90;;;4.40;99.90;;;;;;4993648;28;20014;-73
2022/11/29 08:53:40;;;;;;;17.52;11.82;;;4.50;99.90;;;;;;4991732;28;20026;-73
2022/11/29 08:56:09;;;;;;;19.63;13.70;;;4.40;99.90;;;;;;5002425;28;20064;-72
2022/11/29 08:58:36;;;;;;;18.73;12.63;;;4.60;99.90;;;;;;4991152;28;20061;-72
2022/11/29 09:01:02;;;;;;;21.90;13.13;;;4.60;99.90;;;;;;4998722;28;20038;-72
2022/11/29 09:06:14;;;;;;;19.03;14.07;;;4.60;99.90;;;;;;5002441;28;20040;-72
2022/11/29 09:08:42;;;;;;;19.13;12.70;;;4.60;99.90;;;;;;5000568;28;20034;-72
2022/11/29 09:11:13;;;;;;;18.13;13.00;;;4.80;99.90;;;;;;5001853;28;20083;-72
2022/11/29 09:13:41;;;;;;;19.98;12.52;;;4.70;99.90;;;;;;4999495;28;20036;-72
2022/11/29 09:16:09;;;;;;;70.65;39.50;;;4.70;99.90;;;;;;4996138;28;20060;-72
2022/11/29 09:18:37;;;;;;;33.28;22.13;;;4.70;99.90;;;;;;5001252;28;20091;-72
2022/11/29 09:21:11;;;;;;;22.50;14.40;;;4.80;99.90;;;;;;4999769;28;20030;-72
2022/11/29 09:23:38;;;;;;;22.90;15.52;;;4.90;99.90;;;;;;4997104;28;20042;-72
2022/11/29 09:26:04;;;;;;;30.58;22.63;;;4.90;99.90;;;;;;5001916;28;20042;-72
2022/11/29 09:28:32;;;;;;;28.25;21.15;;;4.90;99.90;;;;;;5001756;28;20465;-72
2022/11/29 09:31:07;;;;;;;22.60;17.05;;;4.90;99.90;;;;;;4997731;28;20045;-72
2022/11/29 09:33:34;;;;;;;27.38;19.85;;;4.90;99.90;;;;;;5001818;28;20033;-72
2022/11/29 09:36:00;;;;;;;28.00;21.73;;;4.90;99.90;;;;;;5000785;28;20037;-72
2022/11/29 09:38:26;;;;;;;27.63;18.80;;;4.80;99.90;;;;;;4998750;28;20511;-72
2022/11/29 09:40:54;;;;;;;30.08;22.75;;;4.90;99.90;;;;;;5001913;28;20030;-72
2022/11/29 09:43:32;;;;;;;20.23;13.45;;;4.90;99.90;;;;;;5010192;28;20049;-72
2022/11/29 09:46:14;;;;;;;22.55;15.20;;;4.90;99.90;;;;;;4999734;28;20032;-72
2022/11/29 09:48:58;;;;;;;21.25;14.45;;;4.90;99.90;;;;;;5002267;28;20026;-72
2022/11/29 09:51:35;;;;;;;20.88;14.85;;;5.00;99.90;;;;;;5001016;28;20040;-72
2022/11/29 09:54:04;;;;;;;25.42;16.67;;;5.10;99.90;;;;;;5001570;28;20547;-72
2022/11/29 09:56:33;;;;;;;23.70;15.80;;;5.10;99.90;;;;;;4990511;28;20034;-72
2022/11/29 09:59:22;;;;;;;20.33;14.27;;;5.10;99.90;;;;;;5003055;28;20030;-72
2022/11/29 10:02:04;;;;;;;23.90;14.93;;;5.10;99.90;;;;;;4997653;28;20037;-72
2022/11/29 10:04:39;;;;;;;20.40;12.90;;;5.00;99.90;;;;;;5003387;28;20033;-72
2022/11/29 10:07:15;;;;;;;;;;;5.10;99.90;;;;;;5003791;28;20026;-72
2022/11/29 10:09:46;;;;;;;20.95;13.05;;;5.10;99.90;;;;;;4998929;28;19925;-72
2022/11/29 10:12:28;;;;;;;17.77;12.38;;;5.00;99.90;;;;;;4997845;28;20037;-72
2022/11/29 10:15:27;;;;;;;18.33;12.07;;;4.80;99.90;;;;;;4996683;28;20635;-72
2022/11/29 10:18:17;;;;;;;18.60;12.73;;;4.70;99.90;;;;;;4995195;28;20049;-72
2022/11/29 10:20:46;;;;;;;19.73;12.75;;;4.60;99.90;;;;;;4995367;28;20712;-72
2022/11/29 10:23:36;;;;;;;18.02;12.45;;;4.70;99.90;;;;;;4999201;28;20041;-72
2022/11/29 10:26:06;;;;;;;19.35;12.52;;;4.70;99.90;;;;;;4998580;28;20041;-72
2022/11/29 10:28:34;;;;;;;19.38;12.68;;;4.80;99.90;;;;;;4996624;28;20026;-72
2022/11/29 10:31:23;;;;;;;19.38;13.40;;;4.80;99.90;;;;;;5001583;28;20029;-72
2022/11/29 10:33:49;;;;;;;19.13;12.35;;;4.80;99.90;;;;;;4997105;28;20045;-72
2022/11/29 10:36:21;;;;;;;17.15;12.63;;;4.90;99.90;;;;;;4995864;28;20095;-72
2022/11/29 10:38:48;;;;;;;18.77;13.15;;;4.80;99.90;;;;;;4998606;28;20625;-72
2022/11/29 10:41:20;;;;;;;20.08;13.13;;;4.70;99.90;;;;;;4998398;28;20065;-72
2022/11/29 10:43:48;;;;;;;20.00;13.18;;;4.90;99.90;;;;;;4994744;28;20034;-72
2022/11/29 10:46:34;;;;;;;19.65;12.55;;;4.90;99.90;;;;;;4997823;28;20033;-72
2022/11/29 10:49:17;;;;;;;21.13;14.07;;;4.90;99.90;;;;;;4997195;28;20064;-72
2022/11/29 10:51:44;;;;;;;19.27;11.88;;;4.90;99.90;;;;;;4999971;28;20041;-72
2022/11/29 10:54:32;;;;;;;18.92;11.43;;;4.90;99.90;;;;;;4997608;28;20150;-72
2022/11/29 10:57:01;;;;;;;16.73;11.63;;;4.80;99.90;;;;;;4999745;28;20029;-72
2022/11/29 10:59:28;;;;;;;19.40;12.02;;;4.90;99.90;;;;;;4994775;28;20040;-72
2022/11/29 11:01:56;;;;;;;18.30;12.15;;;4.90;99.90;;;;;;4994455;28;20061;-72
2022/11/29 11:04:28;;;;;;;18.83;12.68;;;4.80;99.90;;;;;;4992695;28;20539;-72
2022/11/29 11:06:59;;;;;;;21.73;13.20;;;4.90;99.90;;;;;;4995475;28;20029;-72
2022/11/29 11:09:57;;;;;;;17.75;11.85;;;4.80;99.90;;;;;;4994604;28;20034;-72
2022/11/29 11:12:29;;;;;;;20.25;13.98;;;4.80;99.90;;;;;;4990699;28;20057;-72
2022/11/29 11:15:23;;;;;;;20.33;13.38;;;4.90;99.90;;;;;;4998426;28;20033;-73
2022/11/29 11:18:03;;;;;;;17.88;12.23;;;5.00;99.90;;;;;;4996049;28;20432;-73
2022/11/29 11:20:36;;;;;;;19.35;12.75;;;5.10;99.90;;;;;;4992942;28;20377;-72
2022/11/29 11:23:06;;;;;;;18.70;12.13;;;5.00;99.90;;;;;;4995190;28;20738;-72
2022/11/29 11:25:39;;;;;;;20.52;14.13;;;5.00;99.90;;;;;;4996336;28;20872;-72
2022/11/29 11:28:26;;;;;;;23.55;14.77;;;5.10;99.90;;;;;;4993740;28;20037;-73
2022/11/29 11:30:59;;;;;;;16.42;11.65;;;5.10;99.90;;;;;;4998882;28;20420;-71
2022/11/29 11:33:28;;;;;;;18.95;13.68;;;5.00;99.90;;;;;;4996277;28;20030;-71
2022/11/29 11:36:08;;;;;;;18.50;12.65;;;5.00;99.90;;;;;;4998124;28;20022;-69
2022/11/29 11:38:37;;;;;;;19.95;13.05;;;4.90;99.90;;;;;;4996305;28;20034;-71
2022/11/29 11:41:10;;;;;;;20.23;13.50;;;4.90;99.90;;;;;;4999103;28;20048;-71
2022/11/29 11:43:37;;;;;;;15.98;11.73;;;4.90;99.90;;;;;;4995370;28;20034;-71
2022/11/29 11:46:03;;;;;;;16.45;11.80;;;4.90;99.90;;;;;;4995966;28;20069;-71
2022/11/29 11:48:29;;;;;;;17.58;11.95;;;4.80;99.90;;;;;;4994448;28;20489;-69
2022/11/29 11:50:58;;;;;;;17.50;11.32;;;4.80;99.90;;;;;;4995626;28;20626;-70
2022/11/29 11:53:28;;;;;;;20.50;12.55;;;4.90;99.90;;;;;;4994853;28;20042;-74
2022/11/29 11:56:01;;;;;;;15.80;11.25;;;4.80;99.90;;;;;;4992234;28;20485;-72
2022/11/29 11:58:51;;;;;;;17.70;12.07;;;4.70;99.90;;;;;;4998365;28;20034;-72
2022/11/29 12:01:36;;;;;;;17.05;11.30;;;4.80;99.90;;;;;;4998265;28;20050;-72
2022/11/29 12:04:05;;;;;;;17.88;11.27;;;4.80;99.90;;;;;;4994388;28;20038;-72
2022/11/29 12:06:41;;;;;;;17.55;11.65;;;4.90;99.90;;;;;;4996815;28;20073;-73
2022/11/29 12:09:18;;;;;;;19.08;11.75;;;4.90;99.90;;;;;;5000726;28;20071;-73
2022/11/29 12:11:59;;;;;;;21.45;13.13;;;4.90;99.90;;;;;;5004136;28;20052;-73
2022/11/29 12:14:46;;;;;;;21.38;13.38;;;4.90;99.90;;;;;;5000927;28;20425;-73
2022/11/29 12:17:18;;;;;;;21.95;12.93;;;4.90;99.90;;;;;;4995217;28;20477;-73
2022/11/29 12:20:19;;;;;;;21.00;13.82;;;4.80;99.90;;;;;;5003659;28;20042;-73
2022/11/29 12:22:56;;;;;;;21.02;14.40;;;4.80;99.90;;;;;;5004104;28;20150;-73
2022/11/29 12:25:28;;;;;;;20.75;13.80;;;4.80;99.90;;;;;;5002994;28;20025;-73
2022/11/29 12:27:53;;;;;;;21.25;13.35;;;4.90;99.90;;;;;;5003088;28;21933;-73
2022/11/29 12:30:19;;;;;;;19.23;13.88;;;4.90;99.90;;;;;;5004420;28;20103;-73
2022/11/29 12:33:29;;;;;;;19.25;13.63;;;4.90;99.90;;;;;;5003889;28;20044;-73
2022/11/29 12:36:20;;;;;;;20.33;13.18;;;5.00;99.90;;;;;;4943042;28;20095;-73
2022/11/29 12:38:45;;;;;;;19.52;12.82;;;4.90;99.90;;;;;;5001828;28;20105;-73
2022/11/29 12:41:38;;;;;;;19.63;13.10;;;5.00;99.90;;;;;;5001471;28;20165;-73
2022/11/29 12:44:35;;;;;;;21.48;13.32;;;5.00;99.90;;;;;;4992172;28;20591;-73
2022/11/29 12:47:19;;;;;;;23.33;13.60;;;5.00;99.90;;;;;;5008624;28;20065;-73
2022/11/29 12:49:56;;;;;;;21.73;13.05;;;5.00;99.90;;;;;;5009287;28;20485;-73
2022/11/29 12:52:35;;;;;;;22.73;13.00;;;5.00;99.90;;;;;;5007474;28;20033;-73
2022/11/29 12:55:07;;;;;;;19.67;12.57;;;5.00;99.90;;;;;;5007056;28;20032;-73
2022/11/29 12:57:47;;;;;;;20.30;12.57;;;5.00;99.90;;;;;;5006095;28;20033;-73
2022/11/29 13:00:15;;;;;;;19.92;13.43;;;5.00;99.90;;;;;;5007185;28;20113;-73
2022/11/29 13:03:00;;;;;;;17.75;13.13;;;5.00;99.90;;;;;;5006186;28;20053;-73
2022/11/29 13:06:02;;;;;;;18.60;12.77;;;5.10;99.90;;;;;;5006049;28;20045;-73
2022/11/29 13:09:01;;;;;;;22.92;12.77;;;5.00;99.90;;;;;;5003804;28;20049;-73
2022/11/29 13:11:35;;;;;;;20.75;13.77;;;4.90;99.90;;;;;;4999998;28;20062;-73
2022/11/29 13:14:00;;;;;;;19.17;12.70;;;5.00;99.90;;;;;;5002104;28;20030;-73
2022/11/29 13:16:49;;;;;;;18.90;13.05;;;5.10;99.90;;;;;;4995504;28;20053;-73
2022/11/29 13:19:22;;;;;;;20.63;14.23;;;5.00;99.90;;;;;;4996534;28;20429;-73
2022/11/29 13:22:06;;;;;;;20.48;13.15;;;5.00;99.90;;;;;;4997199;28;20034;-72
2022/11/29 13:24:52;;;;;;;21.95;14.50;;;5.00;99.90;;;;;;4998552;28;20069;-72
2022/11/29 13:27:33;;;;;;;22.25;14.32;;;5.10;99.90;;;;;;4999466;28;20112;-72
2022/11/29 13:30:00;;;;;;;19.98;13.90;;;5.00;99.90;;;;;;4998737;28;20111;-72
2022/11/29 13:32:45;;;;;;;20.70;14.45;;;5.10;99.90;;;;;;5002071;28;20073;-72
2022/11/29 13:35:22;;;;;;;22.55;14.80;;;5.00;99.90;;;;;;4998608;28;20038;-72
2022/11/29 13:37:59;;;;;;;22.30;14.10;;;5.00;99.90;;;;;;5002177;28;20345;-72
2022/11/29 13:40:42;;;;;;;18.10;13.10;;;5.00;99.90;;;;;;4996161;28;20034;-72